createdAt,value
2022-12-13T00:00:57.355Z,74.10
2022-12-13T00:05:58.905Z,74.74
2022-12-13T00:11:01.875Z,73.82
2022-12-13T00:16:06.322Z,73.69
2022-12-13T00:21:18.940Z,73.82
2022-12-13T00:26:22.836Z,74.18
2022-12-13T00:36:48.231Z,73.76
2022-12-13T00:41:49.829Z,73.75
2022-12-13T00:46:54.598Z,74.14
2022-12-13T00:51:56.964Z,73.01
2022-12-13T00:56:58.859Z,72.94
2022-12-13T01:02:00.459Z,72.68
2022-12-13T01:07:02.109Z,72.77
2022-12-13T01:12:05.572Z,73.33
2022-12-13T01:17:08.042Z,73.03
2022-12-13T01:22:11.627Z,72.79
2022-12-13T01:27:13.174Z,71.77
2022-12-13T01:32:14.760Z,72.93
2022-12-13T01:37:17.583Z,72.48
2022-12-13T01:42:19.170Z,71.93
2022-12-13T01:47:25.826Z,72.03
2022-12-13T01:52:29.466Z,72.60
2022-12-13T01:57:33.228Z,72.97
2022-12-13T02:02:35.314Z,72.02
2022-12-13T02:07:38.503Z,71.95
2022-12-13T02:12:40.737Z,72.47
2022-12-13T02:18:05.420Z,72.25
2022-12-13T02:23:31.139Z,72.33
2022-12-13T02:28:51.633Z,71.53
2022-12-13T02:34:02.468Z,72.17
2022-12-13T02:39:16.907Z,71.48
2022-12-13T02:44:51.728Z,71.52
2022-12-13T02:49:58.849Z,70.98
2022-12-13T02:55:07.344Z,71.43
2022-12-13T03:00:21.425Z,71.50
2022-12-13T03:06:13.841Z,71.73
2022-12-13T03:11:17.813Z,70.62
2022-12-13T03:16:40.682Z,72.40
2022-12-13T03:21:48.547Z,72.39
2022-12-13T03:26:51.066Z,72.74
2022-12-13T03:31:53.889Z,71.75
2022-12-13T03:36:55.545Z,71.69
2022-12-13T03:41:57.134Z,72.33
2022-12-13T03:47:00.663Z,72.45
2022-12-13T03:52:02.687Z,72.40
2022-12-13T03:57:04.247Z,71.31
2022-12-13T04:02:05.908Z,71.21
2022-12-13T04:07:22.014Z,71.59
2022-12-13T04:12:48.169Z,71.13
2022-12-13T04:17:51.155Z,70.68
2022-12-13T04:22:52.958Z,71.05
2022-12-13T04:27:54.499Z,70.72
2022-12-13T04:32:56.790Z,70.43
2022-12-13T04:37:58.426Z,71.60
2022-12-13T04:42:59.968Z,70.78
2022-12-13T04:48:01.591Z,71.30
2022-12-13T04:53:03.399Z,72.05
2022-12-13T04:58:05.010Z,72.17
2022-12-13T05:03:08.134Z,72.79
2022-12-13T05:08:09.694Z,72.25
2022-12-13T05:13:11.322Z,72.56
2022-12-13T05:18:12.875Z,72.02
2022-12-13T05:23:14.524Z,71.61
2022-12-13T05:28:28.956Z,71.33
2022-12-13T05:33:30.715Z,71.96
2022-12-13T05:38:32.537Z,71.43
2022-12-13T05:43:43.215Z,72.18
2022-12-13T05:48:45.419Z,71.71
2022-12-13T05:53:51.560Z,71.88
2022-12-13T05:58:54.966Z,72.35
2022-12-13T06:03:56.865Z,72.60
2022-12-13T06:08:59.785Z,73.46
2022-12-13T06:14:01.544Z,72.43
2022-12-13T06:19:04.799Z,72.17
2022-12-13T06:24:08.666Z,72.11
2022-12-13T06:29:11.132Z,72.72
2022-12-13T06:34:13.979Z,71.82
2022-12-13T06:39:16.977Z,71.35
2022-12-13T06:44:18.609Z,71.42
2022-12-13T06:49:20.263Z,70.23
2022-12-13T06:54:23.868Z,70.02
2022-12-13T06:59:25.445Z,70.51
2022-12-13T07:04:29.741Z,70.87
2022-12-13T07:09:32.299Z,70.29
2022-12-13T07:14:40.655Z,70.38
2022-12-13T07:19:43.364Z,70.03
2022-12-13T07:24:45.291Z,69.99
2022-12-13T07:29:46.944Z,71.54
2022-12-13T07:34:48.927Z,71.20
2022-12-13T07:39:50.525Z,71.67
2022-12-13T07:44:52.551Z,71.88
2022-12-13T07:49:54.159Z,70.76
2022-12-13T07:54:55.766Z,71.36
2022-12-13T07:59:58.090Z,72.05
2022-12-13T08:04:59.741Z,70.65
2022-12-13T08:10:21.303Z,70.30
2022-12-13T08:15:23.293Z,69.69
2022-12-13T08:20:24.875Z,69.53
2022-12-13T08:25:27.103Z,69.60
2022-12-13T08:30:28.707Z,70.03
2022-12-13T08:35:33.955Z,69.05
2022-12-13T08:40:36.646Z,68.98
2022-12-13T08:45:38.261Z,69.01
2022-12-13T08:50:39.919Z,68.90
2022-12-13T08:55:42.043Z,67.96
2022-12-13T09:00:45.271Z,69.37
2022-12-13T09:05:46.856Z,69.13
2022-12-13T09:10:59.195Z,67.72
2022-12-13T09:16:05.057Z,68.29
2022-12-13T09:21:22.112Z,66.96
2022-12-13T09:26:25.481Z,67.04
2022-12-13T09:31:27.338Z,66.26
2022-12-13T09:36:29.211Z,67.14
2022-12-13T09:41:34.320Z,68.33
2022-12-13T09:46:45.522Z,67.85
2022-12-13T09:52:01.305Z,67.74
2022-12-13T09:57:31.353Z,67.99
2022-12-13T10:02:42.540Z,68.38
2022-12-13T10:07:44.490Z,67.26
2022-12-13T10:12:49.044Z,66.71
2022-12-13T10:17:55.673Z,66.42
2022-12-13T10:28:25.466Z,67.09
2022-12-13T10:33:51.525Z,66.44
2022-12-13T10:38:53.112Z,65.83
2022-12-13T10:44:17.756Z,66.00
2022-12-13T10:49:24.587Z,66.80
2022-12-13T10:54:38.851Z,66.53
2022-12-13T10:59:51.072Z,66.59
2022-12-13T11:04:52.660Z,66.33
2022-12-13T11:09:54.287Z,65.72
2022-12-13T11:14:55.910Z,66.40
2022-12-13T11:20:19.938Z,66.71
2022-12-13T11:25:33.919Z,65.68
2022-12-13T11:31:09.685Z,66.43
2022-12-13T11:36:26.595Z,66.28
2022-12-13T11:41:32.472Z,66.71
2022-12-13T11:46:40.767Z,66.47
2022-12-13T11:52:04.916Z,66.42
2022-12-13T11:57:16.382Z,66.35
2022-12-13T12:02:29.505Z,66.04
2022-12-13T12:08:21.019Z,66.00
2022-12-13T12:13:27.232Z,66.13
2022-12-13T12:18:28.970Z,65.96
2022-12-13T12:23:53.878Z,65.93
2022-12-13T12:29:11.894Z,66.45
2022-12-13T12:34:27.215Z,66.37
2022-12-13T12:39:48.510Z,66.67
2022-12-13T12:44:50.566Z,66.48
2022-12-13T12:50:18.533Z,65.48
2022-12-13T12:55:33.222Z,66.28
2022-12-13T13:00:42.314Z,66.08
2022-12-13T13:06:03.098Z,66.66
2022-12-13T13:11:05.693Z,66.92
2022-12-13T13:16:26.825Z,67.03
2022-12-13T13:21:34.203Z,67.04
2022-12-13T13:26:47.889Z,66.86
2022-12-13T13:32:01.126Z,66.92
2022-12-13T13:37:05.044Z,66.84
2022-12-13T13:42:15.600Z,66.89
2022-12-13T13:47:19.898Z,66.44
2022-12-13T13:52:25.341Z,66.75
2022-12-13T14:04:04.252Z,67.87
2022-12-13T14:09:24.838Z,67.43
2022-12-13T14:14:49.936Z,67.83
2022-12-13T14:20:06.325Z,68.50
2022-12-13T14:25:23.327Z,68.93
2022-12-13T14:30:27.233Z,69.12
2022-12-13T14:35:32.493Z,69.39
2022-12-13T14:40:38.972Z,69.30
2022-12-13T14:45:40.679Z,68.77
2022-12-13T14:50:44.807Z,68.32
2022-12-13T14:56:04.269Z,68.86
2022-12-13T15:01:37.423Z,69.30
2022-12-13T15:06:39.518Z,69.90
2022-12-13T15:11:42.626Z,70.78
2022-12-13T15:16:55.400Z,71.34
2022-12-13T15:22:07.563Z,72.06
2022-12-13T15:27:13.342Z,72.54
2022-12-13T15:32:19.083Z,72.70
2022-12-13T15:37:29.659Z,72.63
2022-12-13T15:42:37.307Z,73.12
2022-12-13T15:47:44.533Z,73.82
2022-12-13T15:52:47.935Z,73.84
2022-12-13T15:57:54.615Z,74.59
2022-12-13T16:03:12.884Z,75.20
2022-12-13T16:08:32.806Z,76.02
2022-12-13T16:13:39.940Z,75.59
2022-12-13T16:18:55.157Z,75.85
2022-12-13T16:23:56.745Z,75.86
2022-12-13T16:29:01.135Z,75.74
2022-12-13T16:34:03.614Z,76.39
2022-12-13T16:39:07.649Z,77.08
2022-12-13T16:44:19.030Z,76.53
2022-12-13T16:49:30.630Z,76.86
2022-12-13T16:54:32.172Z,76.13
2022-12-13T16:59:33.874Z,74.98
2022-12-13T17:04:39.633Z,74.76
2022-12-13T17:09:42.167Z,75.02
2022-12-13T17:14:43.751Z,75.44
2022-12-13T17:19:45.401Z,75.57
2022-12-13T17:24:47.013Z,76.15
2022-12-13T17:29:48.611Z,76.70
2022-12-13T17:34:53.187Z,76.65
2022-12-13T17:39:54.729Z,76.83
2022-12-13T17:44:56.336Z,76.98
2022-12-13T17:49:57.950Z,76.79
2022-12-13T17:55:00.926Z,75.49
2022-12-13T18:00:03.927Z,74.94
2022-12-13T18:05:17.868Z,74.11
2022-12-13T18:10:22.583Z,74.10
2022-12-13T18:15:27.969Z,75.07
2022-12-13T18:20:30.166Z,74.48
2022-12-13T18:25:31.983Z,73.91
2022-12-13T18:30:33.712Z,75.05
2022-12-13T18:35:35.356Z,74.45
2022-12-13T18:40:37.471Z,73.98
2022-12-13T18:45:39.064Z,74.55
2022-12-13T18:50:45.535Z,74.37
2022-12-13T18:55:51.029Z,74.11
2022-12-13T19:00:52.890Z,73.60
2022-12-13T19:05:58.343Z,74.34
2022-12-13T19:11:01.881Z,74.62
2022-12-13T19:16:07.453Z,73.72
2022-12-13T19:21:15.789Z,74.45
2022-12-13T19:26:17.884Z,74.72
2022-12-13T19:31:19.569Z,75.73
2022-12-13T19:36:21.458Z,75.80
2022-12-13T19:41:24.647Z,74.84
2022-12-13T19:46:26.408Z,75.31
2022-12-13T19:51:28.015Z,73.83
2022-12-13T19:56:29.716Z,73.84
2022-12-13T20:01:31.593Z,74.00
2022-12-13T20:06:33.202Z,74.25
2022-12-13T20:11:36.129Z,74.13
2022-12-13T20:16:37.755Z,74.41
2022-12-13T20:21:39.377Z,74.97
2022-12-13T20:26:40.996Z,74.86
2022-12-13T20:31:42.695Z,75.31
2022-12-13T20:36:50.201Z,74.67
2022-12-13T20:41:51.851Z,74.55
2022-12-13T20:46:53.757Z,74.79
2022-12-13T20:51:55.390Z,73.70
2022-12-13T20:56:57.092Z,73.71
2022-12-13T21:01:58.806Z,73.23
2022-12-13T21:07:02.553Z,73.47
2022-12-13T21:12:04.319Z,73.19
2022-12-13T21:17:09.597Z,73.75
2022-12-13T21:22:12.702Z,74.91
2022-12-13T21:27:14.564Z,74.05
2022-12-13T21:32:16.375Z,74.01
2022-12-13T21:37:18.466Z,73.51
2022-12-13T21:42:20.365Z,73.75
2022-12-13T21:47:22.178Z,73.02
2022-12-13T21:52:23.914Z,73.32
2022-12-13T21:57:44.601Z,73.52
2022-12-13T22:02:46.304Z,73.95
2022-12-13T22:07:48.128Z,74.89
2022-12-13T22:12:49.811Z,75.04
2022-12-13T22:17:53.175Z,74.72
2022-12-13T22:22:54.891Z,74.79
2022-12-13T22:27:57.283Z,74.26
2022-12-13T22:32:58.845Z,74.27
2022-12-13T22:38:01.788Z,74.79
2022-12-13T22:43:03.521Z,75.33
2022-12-13T22:48:05.665Z,74.54
2022-12-13T22:53:07.290Z,74.28
2022-12-13T22:58:08.838Z,75.10
2022-12-13T23:03:11.310Z,74.71
2022-12-13T23:08:12.942Z,75.22
2022-12-13T23:13:14.578Z,75.41
2022-12-13T23:18:16.105Z,75.23
2022-12-13T23:23:17.716Z,75.29
2022-12-13T23:28:19.319Z,75.04
2022-12-13T23:33:20.977Z,76.13
2022-12-13T23:38:22.515Z,77.00
2022-12-13T23:43:24.112Z,76.60
2022-12-13T23:48:27.142Z,76.22
2022-12-13T23:53:28.866Z,77.19
2022-12-13T23:58:30.571Z,76.68
